Terminal Aerodrome Forecast
Issued by NWS Boston, MA

Home | Current Version | Previous Version | Text Only | Print | Product List | Glossary On
Versions: 1 2 3 4 5 6 7 8 9 10 11 12 13 14 15 16 17 18 19 20 21 22 23 24 25 26 27 28 29 30 31 32 33 34 35 36 37 38 39 40 41 42 43 44 45
278
FTUS41 KBOX 180849 AAA
TAFBDL
TAF AMD
KBDL 180849Z 1809/1912 16005KT P6SM VCSH OVC010
     FM181100 16006KT 5SM -SHRA BR OVC020
     FM181400 18008KT 3SM BR VCSH OVC015
     FM182000 18008KT 3SM -SHRA VCTS OVC008CB
     FM190000 18007KT 5SM BR OVC015
     FM191100 20004KT P6SM BKN040=

USA.gov is the U.S. government's official web portal to all federal, state and local government web resources and services.